createdAt,value
2018-12-14T00:00:56.694Z,1017.76
2018-12-14T00:01:56.684Z,1017.82
2018-12-14T00:02:56.699Z,1017.75
2018-12-14T00:03:56.699Z,1017.76
2018-12-14T00:04:56.647Z,1017.70
2018-12-14T00:05:56.663Z,1017.75
2018-12-14T00:06:56.627Z,1017.73
2018-12-14T00:07:56.614Z,1017.74
2018-12-14T00:08:56.606Z,1017.78
2018-12-14T00:09:56.767Z,1017.78
2018-12-14T00:10:56.595Z,1017.75
2018-12-14T00:11:56.573Z,1017.79
2018-12-14T00:12:56.564Z,1017.73
2018-12-14T00:13:56.549Z,1017.76
2018-12-14T00:14:56.580Z,1017.70
2018-12-14T00:15:56.573Z,1017.71
2018-12-14T00:16:56.522Z,1017.73
2018-12-14T00:17:56.568Z,1017.78
2018-12-14T00:18:56.499Z,1017.74
2018-12-14T00:19:56.535Z,1017.73
2018-12-14T00:20:57.365Z,1017.78
2018-12-14T00:21:56.468Z,1017.74
2018-12-14T00:22:56.463Z,1017.80
2018-12-14T00:23:56.437Z,1017.74
2018-12-14T00:24:56.460Z,1017.77
2018-12-14T00:25:56.469Z,1017.85
2018-12-14T00:26:56.418Z,1017.76
2018-12-14T00:27:56.398Z,1017.77
2018-12-14T00:28:56.389Z,1017.81
2018-12-14T00:29:56.375Z,1017.80
2018-12-14T00:30:56.399Z,1017.84
2018-12-14T00:31:56.418Z,1017.81
2018-12-14T00:32:56.351Z,1017.87
2018-12-14T00:33:56.334Z,1017.84
2018-12-14T00:34:56.331Z,1017.91
2018-12-14T00:35:56.360Z,1017.81
2018-12-14T00:36:56.314Z,1017.86
2018-12-14T00:37:56.293Z,1017.87
2018-12-14T00:38:56.276Z,1017.81
2018-12-14T00:39:56.271Z,1017.80
2018-12-14T00:40:56.306Z,1017.83
2018-12-14T00:41:56.251Z,1017.82
2018-12-14T00:42:56.246Z,1017.75
2018-12-14T00:43:56.220Z,1017.78
2018-12-14T00:44:56.209Z,1017.79
2018-12-14T00:45:56.231Z,1017.74
2018-12-14T00:46:56.188Z,1017.80
2018-12-14T00:47:56.212Z,1017.79
2018-12-14T00:48:56.171Z,1017.80
2018-12-14T00:49:56.193Z,1017.82
2018-12-14T00:50:56.150Z,1017.74
2018-12-14T00:51:56.191Z,1017.80
2018-12-14T00:52:56.126Z,1017.80
2018-12-14T00:54:03.278Z,1017.80
2018-12-14T00:54:56.105Z,1017.86
2018-12-14T00:55:56.096Z,1017.82
2018-12-14T00:56:56.083Z,1017.88
2018-12-14T00:57:56.100Z,1017.88
2018-12-14T00:58:56.060Z,1017.77
2018-12-14T00:59:56.045Z,1017.84
2018-12-14T01:00:56.069Z,1017.84
2018-12-14T01:01:56.029Z,1017.87
2018-12-14T01:02:56.022Z,1017.82
2018-12-14T01:03:56.014Z,1017.90
2018-12-14T01:04:55.992Z,1017.86
2018-12-14T01:05:56.056Z,1017.88
2018-12-14T01:06:55.970Z,1017.84
2018-12-14T01:07:55.959Z,1017.84
2018-12-14T01:08:55.954Z,1017.88
2018-12-14T01:09:55.971Z,1017.86
2018-12-14T01:10:55.967Z,1017.90
2018-12-14T01:11:58.292Z,1017.91
2018-12-14T01:12:55.913Z,1017.89
2018-12-14T01:13:55.903Z,1017.89
2018-12-14T01:14:55.886Z,1017.91
2018-12-14T01:15:55.877Z,1017.90
2018-12-14T01:16:55.912Z,1017.97
2018-12-14T01:17:55.856Z,1017.91
2018-12-14T01:18:55.839Z,1017.95
2018-12-14T01:19:55.845Z,1017.93
2018-12-14T01:20:55.820Z,1017.97
2018-12-14T01:21:55.903Z,1017.90
2018-12-14T01:22:55.799Z,1017.96
2018-12-14T01:23:55.858Z,1017.92
2018-12-14T01:24:55.784Z,1017.91
2018-12-14T01:25:55.765Z,1017.94
2018-12-14T01:26:55.757Z,1017.91
2018-12-14T01:27:55.800Z,1017.95
2018-12-14T01:28:55.770Z,1017.98
2018-12-14T01:29:55.719Z,1017.97
2018-12-14T01:30:55.709Z,1017.99
2018-12-14T01:31:55.719Z,1017.93
2018-12-14T01:32:55.690Z,1018.02
2018-12-14T01:33:55.719Z,1017.98
2018-12-14T01:34:55.671Z,1017.91
2018-12-14T01:35:55.657Z,1017.95
2018-12-14T01:36:55.643Z,1017.94
2018-12-14T01:37:55.642Z,1017.95
2018-12-14T01:38:55.669Z,1017.98
2018-12-14T01:39:55.647Z,1018.03
2018-12-14T01:40:55.607Z,1017.98
2018-12-14T01:41:55.592Z,1018.03
2018-12-14T01:42:55.602Z,1018.04
2018-12-14T01:43:55.607Z,1017.98
2018-12-14T01:44:55.591Z,1017.95
2018-12-14T01:45:55.619Z,1017.97
2018-12-14T01:46:55.549Z,1017.96
2018-12-14T01:47:55.525Z,1018.01
2018-12-14T01:48:55.515Z,1017.92
2018-12-14T01:49:55.502Z,1017.95
2018-12-14T01:50:55.527Z,1017.97
2018-12-14T01:51:55.501Z,1017.94
2018-12-14T01:52:55.497Z,1018.03
2018-12-14T01:53:55.459Z,1017.99
2018-12-14T01:54:55.446Z,1018.02
2018-12-14T01:55:55.440Z,1017.96
2018-12-14T01:56:55.433Z,1017.96
2018-12-14T01:57:55.449Z,1017.96
2018-12-14T01:58:55.409Z,1017.95
2018-12-14T01:59:55.413Z,1017.90
2018-12-14T02:00:55.390Z,1017.93
2018-12-14T02:01:55.424Z,1017.94
2018-12-14T02:02:55.402Z,1017.92
2018-12-14T02:03:55.354Z,1017.90
2018-12-14T02:04:55.353Z,1017.89
2018-12-14T02:05:55.362Z,1017.90
2018-12-14T02:06:55.319Z,1017.92
2018-12-14T02:07:55.330Z,1017.93
2018-12-14T02:08:55.320Z,1017.93
2018-12-14T02:09:55.290Z,1017.88
2018-12-14T02:10:55.304Z,1017.90
2018-12-14T02:11:55.282Z,1017.87
2018-12-14T02:12:55.261Z,1017.92
2018-12-14T02:13:55.242Z,1017.86
2018-12-14T02:14:55.233Z,1017.88
2018-12-14T02:15:55.255Z,1017.90
2018-12-14T02:16:55.215Z,1017.85
2018-12-14T02:17:55.252Z,1017.86
2018-12-14T02:18:55.207Z,1017.83
2018-12-14T02:19:55.175Z,1017.86
2018-12-14T02:20:55.165Z,1017.81
2018-12-14T02:21:55.157Z,1017.79
2018-12-14T02:22:55.203Z,1017.81
2018-12-14T02:23:55.176Z,1017.79
2018-12-14T02:24:55.126Z,1017.75
2018-12-14T02:25:55.199Z,1017.80
2018-12-14T02:26:55.148Z,1017.75
2018-12-14T02:27:55.117Z,1017.76
2018-12-14T02:28:55.113Z,1017.76
2018-12-14T02:29:55.071Z,1017.81
2018-12-14T02:30:55.092Z,1017.75
2018-12-14T02:31:55.049Z,1017.73
2018-12-14T02:32:55.034Z,1017.77
2018-12-14T02:33:55.069Z,1017.82
2018-12-14T02:34:55.029Z,1017.76
2018-12-14T02:35:55.058Z,1017.79
2018-12-14T02:36:54.996Z,1017.82
2018-12-14T02:37:54.995Z,1017.73
2018-12-14T02:38:54.976Z,1017.74
2018-12-14T02:39:54.964Z,1017.80
2018-12-14T02:40:54.978Z,1017.74
2018-12-14T02:41:54.985Z,1017.74
2018-12-14T02:42:54.931Z,1017.81
2018-12-14T02:43:54.950Z,1017.79
2018-12-14T02:44:54.905Z,1017.77
2018-12-14T02:45:54.908Z,1017.70
2018-12-14T02:46:54.887Z,1017.74
2018-12-14T02:47:54.939Z,1017.76
2018-12-14T02:48:54.898Z,1017.70
2018-12-14T02:49:54.850Z,1017.73
2018-12-14T02:50:54.846Z,1017.72
2018-12-14T02:51:54.836Z,1017.74
2018-12-14T02:52:54.829Z,1017.66
2018-12-14T02:53:54.846Z,1017.74
2018-12-14T02:54:54.797Z,1017.68
2018-12-14T02:55:54.855Z,1017.68
2018-12-14T02:56:54.782Z,1017.69
2018-12-14T02:57:54.783Z,1017.70
2018-12-14T02:58:54.754Z,1017.71
2018-12-14T02:59:54.745Z,1017.73
2018-12-14T03:00:54.767Z,1017.71
2018-12-14T03:01:54.725Z,1017.73
2018-12-14T03:02:54.714Z,1017.68
2018-12-14T03:03:54.735Z,1017.67
2018-12-14T03:04:54.691Z,1017.70
2018-12-14T03:05:54.725Z,1017.75
2018-12-14T03:06:54.704Z,1017.77
2018-12-14T03:07:54.662Z,1017.78
2018-12-14T03:08:54.647Z,1017.80
2018-12-14T03:09:54.675Z,1017.76
2018-12-14T03:10:54.625Z,1017.75
2018-12-14T03:11:54.637Z,1017.76
2018-12-14T03:12:54.606Z,1017.72
2018-12-14T03:13:54.600Z,1017.76
2018-12-14T03:14:54.629Z,1017.75
2018-12-14T03:15:54.578Z,1017.71
2018-12-14T03:16:54.568Z,1017.70
2018-12-14T03:17:54.569Z,1017.70
2018-12-14T03:18:54.538Z,1017.68
2018-12-14T03:19:54.555Z,1017.72
2018-12-14T03:20:54.547Z,1017.72
2018-12-14T03:21:54.550Z,1017.73
2018-12-14T03:22:54.503Z,1017.79
2018-12-14T03:23:54.493Z,1017.76
2018-12-14T03:24:54.469Z,1017.77
2018-12-14T03:25:54.500Z,1017.76
2018-12-14T03:26:54.474Z,1017.75
2018-12-14T03:27:54.484Z,1017.80
2018-12-14T03:28:54.437Z,1017.74
2018-12-14T03:29:54.435Z,1017.77
2018-12-14T03:30:54.590Z,1017.81
2018-12-14T03:31:54.421Z,1017.74
2018-12-14T03:32:54.426Z,1017.75
2018-12-14T03:33:54.379Z,1017.74
2018-12-14T03:34:54.367Z,1017.79
2018-12-14T03:35:54.353Z,1017.74
2018-12-14T03:36:54.373Z,1017.72
2018-12-14T03:37:54.402Z,1017.71
2018-12-14T03:38:54.325Z,1017.70
2018-12-14T03:39:54.315Z,1017.73
2018-12-14T03:40:54.311Z,1017.70
2018-12-14T03:41:54.290Z,1017.70
2018-12-14T03:42:54.305Z,1017.65
2018-12-14T03:43:54.265Z,1017.69
2018-12-14T03:44:54.261Z,1017.62
2018-12-14T03:45:54.248Z,1017.62
2018-12-14T03:46:54.243Z,1017.64
2018-12-14T03:47:54.259Z,1017.57
2018-12-14T03:48:54.222Z,1017.58
2018-12-14T03:49:54.199Z,1017.59
2018-12-14T03:50:54.194Z,1017.59
2018-12-14T03:51:54.212Z,1017.56
2018-12-14T03:52:54.221Z,1017.54
2018-12-14T03:53:54.219Z,1017.50
2018-12-14T03:54:54.149Z,1017.50
2018-12-14T03:55:54.141Z,1017.57
2018-12-14T03:56:54.123Z,1017.59
2018-12-14T03:57:54.150Z,1017.55
2018-12-14T03:58:54.116Z,1017.56
2018-12-14T03:59:54.092Z,1017.57
2018-12-14T04:00:54.095Z,1017.66
2018-12-14T04:01:54.085Z,1017.61
2018-12-14T04:02:54.090Z,1017.60
2018-12-14T04:03:54.056Z,1017.60
2018-12-14T04:04:54.069Z,1017.66
2018-12-14T04:05:54.034Z,1017.66
2018-12-14T04:06:54.017Z,1017.74
2018-12-14T04:07:54.011Z,1017.73
2018-12-14T04:08:53.998Z,1017.66
2018-12-14T04:09:54.034Z,1017.70
2018-12-14T04:10:53.977Z,1017.69
2018-12-14T04:11:53.971Z,1017.69
2018-12-14T04:12:53.951Z,1017.75
2018-12-14T04:13:53.940Z,1017.74
2018-12-14T04:14:54.028Z,1017.70
2018-12-14T04:15:53.923Z,1017.70
2018-12-14T04:16:53.938Z,1017.75
2018-12-14T04:17:53.946Z,1017.76
2018-12-14T04:18:53.886Z,1017.74
2018-12-14T04:19:53.874Z,1017.72
2018-12-14T04:20:53.916Z,1017.69
2018-12-14T04:21:53.857Z,1017.67
2018-12-14T04:22:53.858Z,1017.79
2018-12-14T04:23:53.833Z,1017.67
2018-12-14T04:24:54.539Z,1017.71
2018-12-14T04:25:53.814Z,1017.68
2018-12-14T04:26:53.834Z,1017.69
2018-12-14T04:27:53.799Z,1017.73
2018-12-14T04:28:53.782Z,1017.76
2018-12-14T04:29:53.778Z,1017.75
2018-12-14T04:30:53.759Z,1017.75
2018-12-14T04:31:53.780Z,1017.78
2018-12-14T04:32:53.732Z,1017.73
2018-12-14T04:33:53.787Z,1017.77
2018-12-14T04:34:53.774Z,1017.83
2018-12-14T04:35:53.708Z,1017.79
2018-12-14T04:36:53.723Z,1017.85
2018-12-14T04:37:53.712Z,1017.79
2018-12-14T04:38:53.675Z,1017.76
2018-12-14T04:39:53.670Z,1017.84
2018-12-14T04:40:53.651Z,1017.81
2018-12-14T04:41:53.671Z,1017.83
2018-12-14T04:42:53.628Z,1017.84
2018-12-14T04:43:53.620Z,1017.81
2018-12-14T04:44:53.633Z,1017.89
2018-12-14T04:45:53.628Z,1017.84
2018-12-14T04:46:53.596Z,1017.89
2018-12-14T04:47:53.600Z,1017.85
2018-12-14T04:48:53.570Z,1017.84
2018-12-14T04:49:53.554Z,1017.89
2018-12-14T04:50:53.561Z,1017.88
2018-12-14T04:51:53.543Z,1017.89
2018-12-14T04:52:53.549Z,1017.86
2018-12-14T04:53:53.506Z,1017.85
2018-12-14T04:54:53.532Z,1017.93
2018-12-14T04:55:53.484Z,1017.80
2018-12-14T04:56:53.527Z,1017.78
2018-12-14T04:57:53.483Z,1017.80
2018-12-14T04:58:53.461Z,1017.82
2018-12-14T04:59:53.436Z,1017.86
2018-12-14T05:00:53.424Z,1017.77
2018-12-14T05:01:53.455Z,1017.77
2018-12-14T05:02:53.445Z,1017.78
2018-12-14T05:03:53.404Z,1017.76
2018-12-14T05:04:53.389Z,1017.80
2018-12-14T05:05:53.424Z,1017.77
2018-12-14T05:06:53.380Z,1017.75
2018-12-14T05:07:53.368Z,1017.82
2018-12-14T05:08:53.356Z,1017.77
2018-12-14T05:09:53.341Z,1017.78
2018-12-14T05:10:53.991Z,1017.84
2018-12-14T05:11:53.310Z,1017.81
2018-12-14T05:12:56.322Z,1017.84
2018-12-14T05:13:53.297Z,1017.84
2018-12-14T05:14:53.296Z,1017.85
2018-12-14T05:15:53.295Z,1017.85
2018-12-14T05:16:53.355Z,1017.79
2018-12-14T05:17:53.245Z,1017.77
2018-12-14T05:18:53.321Z,1017.84
2018-12-14T05:19:53.229Z,1017.87
2018-12-14T05:20:53.248Z,1017.87
2018-12-14T05:21:53.220Z,1017.90
2018-12-14T05:22:53.188Z,1017.90
2018-12-14T05:23:53.204Z,1017.88
2018-12-14T05:24:53.168Z,1017.89
2018-12-14T05:25:53.160Z,1017.84
2018-12-14T05:26:53.150Z,1017.92
2018-12-14T05:27:53.214Z,1017.90
2018-12-14T05:28:53.124Z,1017.89
2018-12-14T05:29:53.217Z,1017.92
2018-12-14T05:30:53.133Z,1017.87
2018-12-14T05:31:53.126Z,1017.92
2018-12-14T05:32:53.110Z,1017.87
2018-12-14T05:33:53.076Z,1017.86
2018-12-14T05:34:53.103Z,1017.84
2018-12-14T05:35:53.043Z,1017.89
2018-12-14T05:36:53.043Z,1017.90
2018-12-14T05:37:53.038Z,1017.86
2018-12-14T05:38:53.053Z,1017.91
2018-12-14T05:39:53.013Z,1017.88
2018-12-14T05:40:53.023Z,1017.84
2018-12-14T05:41:52.983Z,1017.83
2018-12-14T05:42:52.989Z,1017.90
2018-12-14T05:43:52.991Z,1017.92
2018-12-14T05:44:52.950Z,1017.88
2018-12-14T05:45:52.935Z,1017.84
2018-12-14T05:46:52.931Z,1017.85
2018-12-14T05:47:52.923Z,1017.84
2018-12-14T05:48:52.934Z,1017.95
2018-12-14T05:49:52.901Z,1017.89
2018-12-14T05:50:53.426Z,1017.94
2018-12-14T05:51:52.870Z,1017.93
2018-12-14T05:52:52.903Z,1017.93
2018-12-14T05:53:52.969Z,1017.94
2018-12-14T05:54:52.845Z,1017.93
2018-12-14T05:55:52.918Z,1017.95
2018-12-14T05:56:52.840Z,1018.01
2018-12-14T05:57:52.812Z,1017.94
2018-12-14T05:58:52.875Z,1017.95
2018-12-14T05:59:52.788Z,1017.96
2018-12-14T06:00:52.774Z,1017.92
2018-12-14T06:01:52.763Z,1017.94
2018-12-14T06:02:52.758Z,1017.98
2018-12-14T06:03:52.802Z,1018.00
2018-12-14T06:04:52.734Z,1018.01
2018-12-14T06:05:52.714Z,1017.99
2018-12-14T06:06:52.715Z,1018.01
2018-12-14T06:07:52.701Z,1018.03
2018-12-14T06:08:52.729Z,1018.02
2018-12-14T06:09:52.773Z,1018.07
2018-12-14T06:10:52.668Z,1018.08
2018-12-14T06:11:52.653Z,1018.03
2018-12-14T06:12:52.644Z,1018.07
2018-12-14T06:13:52.630Z,1018.08
2018-12-14T06:14:52.650Z,1018.05
2018-12-14T06:15:52.625Z,1018.13
2018-12-14T06:16:52.600Z,1018.08
2018-12-14T06:17:52.627Z,1018.09
2018-12-14T06:18:52.599Z,1018.09
2018-12-14T06:19:52.571Z,1018.11
2018-12-14T06:20:52.556Z,1018.11
2018-12-14T06:21:52.557Z,1018.10
2018-12-14T06:22:52.572Z,1018.09
2018-12-14T06:23:52.522Z,1018.17
2018-12-14T06:24:52.516Z,1018.18
2018-12-14T06:25:52.556Z,1018.18
2018-12-14T06:26:52.491Z,1018.15
2018-12-14T06:27:52.508Z,1018.18
2018-12-14T06:28:52.469Z,1018.22
2018-12-14T06:29:52.462Z,1018.25
2018-12-14T06:30:52.452Z,1018.28
2018-12-14T06:31:52.451Z,1018.27
2018-12-14T06:32:52.455Z,1018.27
2018-12-14T06:33:52.453Z,1018.25
2018-12-14T06:34:52.400Z,1018.29
2018-12-14T06:35:52.388Z,1018.27
2018-12-14T06:36:52.412Z,1018.26
2018-12-14T06:37:52.371Z,1018.23
2018-12-14T06:38:52.359Z,1018.25
2018-12-14T06:39:52.372Z,1018.23
2018-12-14T06:40:52.344Z,1018.27
2018-12-14T06:41:52.361Z,1018.25
2018-12-14T06:42:52.322Z,1018.24
2018-12-14T06:43:52.332Z,1018.28
2018-12-14T06:44:52.292Z,1018.25
2018-12-14T06:45:52.286Z,1018.32
2018-12-14T06:46:52.376Z,1018.27
2018-12-14T06:47:52.264Z,1018.32
2018-12-14T06:48:52.252Z,1018.30
2018-12-14T06:49:52.281Z,1018.29
2018-12-14T06:50:52.265Z,1018.29
2018-12-14T06:51:52.226Z,1018.37
2018-12-14T06:52:52.210Z,1018.33
2018-12-14T06:53:52.239Z,1018.38
2018-12-14T06:54:59.243Z,1018.39
2018-12-14T06:55:52.227Z,1018.40
2018-12-14T06:56:52.177Z,1018.41
2018-12-14T06:57:52.150Z,1018.41
2018-12-14T06:58:52.141Z,1018.46
2018-12-14T06:59:52.132Z,1018.41
2018-12-14T07:00:52.155Z,1018.48
2018-12-14T07:01:52.110Z,1018.50
2018-12-14T07:02:52.109Z,1018.49
2018-12-14T07:03:52.115Z,1018.51
2018-12-14T07:04:52.109Z,1018.50
2018-12-14T07:05:52.074Z,1018.49
2018-12-14T07:06:52.109Z,1018.50
2018-12-14T07:07:52.042Z,1018.54
2018-12-14T07:08:52.042Z,1018.55
2018-12-14T07:09:52.023Z,1018.53
2018-12-14T07:10:52.007Z,1018.56
2018-12-14T07:11:52.039Z,1018.55
2018-12-14T07:12:51.990Z,1018.57
2018-12-14T07:13:52.012Z,1018.60
2018-12-14T07:14:51.967Z,1018.58
2018-12-14T07:15:51.966Z,1018.67
2018-12-14T07:16:51.948Z,1018.65
2018-12-14T07:17:51.967Z,1018.69
2018-12-14T07:18:51.993Z,1018.69
2018-12-14T07:19:51.920Z,1018.74
2018-12-14T07:20:51.917Z,1018.75
2018-12-14T07:21:51.922Z,1018.72
2018-12-14T07:22:51.880Z,1018.71
2018-12-14T07:23:51.941Z,1018.71
2018-12-14T07:24:51.859Z,1018.73
2018-12-14T07:25:51.859Z,1018.75
2018-12-14T07:26:51.848Z,1018.76
2018-12-14T07:27:51.829Z,1018.80
2018-12-14T07:28:51.874Z,1018.77
2018-12-14T07:29:51.872Z,1018.80
2018-12-14T07:30:51.796Z,1018.72
2018-12-14T07:31:51.785Z,1018.76
2018-12-14T07:32:51.814Z,1018.81
2018-12-14T07:33:51.776Z,1018.81
2018-12-14T07:34:51.806Z,1018.84
2018-12-14T07:35:51.748Z,1018.88
2018-12-14T07:36:51.738Z,1018.92
2018-12-14T07:37:51.753Z,1018.89
2018-12-14T07:38:51.859Z,1018.92
2018-12-14T07:39:51.703Z,1018.90
2018-12-14T07:40:51.699Z,1018.96
2018-12-14T07:41:51.680Z,1018.86
2018-12-14T07:42:51.714Z,1018.89
2018-12-14T07:43:51.663Z,1018.88
2018-12-14T07:44:51.759Z,1018.84
2018-12-14T07:45:51.733Z,1018.94
2018-12-14T07:46:51.623Z,1018.93
2018-12-14T07:47:51.673Z,1018.94
2018-12-14T07:48:51.614Z,1018.91
2018-12-14T07:49:51.589Z,1018.93
2018-12-14T07:50:51.615Z,1018.94
2018-12-14T07:51:51.568Z,1018.96
2018-12-14T07:52:51.601Z,1018.98
2018-12-14T07:53:51.544Z,1018.98
2018-12-14T07:54:51.548Z,1018.98
2018-12-14T07:55:51.596Z,1018.98
2018-12-14T07:56:51.519Z,1019.00
2018-12-14T07:57:51.540Z,1019.01
2018-12-14T07:58:51.488Z,1019.05
2018-12-14T07:59:51.483Z,1019.06
2018-12-14T08:00:51.470Z,1019.05
2018-12-14T08:01:51.529Z,1019.06
2018-12-14T08:02:51.447Z,1019.05
2018-12-14T08:03:51.440Z,1019.04
2018-12-14T08:04:51.477Z,1019.12
2018-12-14T08:05:51.414Z,1019.20
2018-12-14T08:06:51.464Z,1019.15
2018-12-14T08:07:51.393Z,1019.16
2018-12-14T08:08:51.973Z,1019.16
2018-12-14T08:09:51.417Z,1019.14
2018-12-14T08:10:51.389Z,1019.15
2018-12-14T08:11:51.347Z,1019.17
2018-12-14T08:12:51.377Z,1019.16
2018-12-14T08:13:51.328Z,1019.20
2018-12-14T08:14:51.338Z,1019.19
2018-12-14T08:15:51.308Z,1019.14
2018-12-14T08:16:51.298Z,1019.20
2018-12-14T08:17:51.356Z,1019.19
2018-12-14T08:18:51.272Z,1019.20
2018-12-14T08:19:51.267Z,1019.21
2018-12-14T08:20:51.251Z,1019.23
2018-12-14T08:21:51.238Z,1019.18
2018-12-14T08:22:51.259Z,1019.21
2018-12-14T08:23:51.235Z,1019.15
2018-12-14T08:24:51.209Z,1019.30
2018-12-14T08:25:51.268Z,1019.23
2018-12-14T08:26:51.183Z,1019.22
2018-12-14T08:27:51.228Z,1019.21
2018-12-14T08:28:51.171Z,1019.30
2018-12-14T08:29:51.895Z,1019.33
2018-12-14T08:30:51.139Z,1019.28
2018-12-14T08:31:51.144Z,1019.23
2018-12-14T08:32:51.149Z,1019.31
2018-12-14T08:33:51.111Z,1019.22
2018-12-14T08:34:51.461Z,1019.29
2018-12-14T08:35:51.091Z,1019.32
2018-12-14T08:36:51.142Z,1019.35
2018-12-14T08:37:51.077Z,1019.31
2018-12-14T08:38:51.104Z,1019.31
2018-12-14T08:39:51.052Z,1019.34
2018-12-14T08:40:51.057Z,1019.34
2018-12-14T08:41:51.967Z,1019.36
2018-12-14T08:42:51.042Z,1019.39
2018-12-14T08:43:51.001Z,1019.35
2018-12-14T08:44:51.049Z,1019.36
2018-12-14T08:45:50.985Z,1019.36
2018-12-14T08:46:50.982Z,1019.44
2018-12-14T08:47:51.038Z,1019.40
2018-12-14T08:48:50.967Z,1019.44
2018-12-14T08:49:50.984Z,1019.40
2018-12-14T08:50:50.934Z,1019.38
2018-12-14T08:51:50.913Z,1019.39
2018-12-14T08:52:50.904Z,1019.43
2018-12-14T08:53:50.892Z,1019.43
2018-12-14T08:54:50.919Z,1019.41
2018-12-14T08:55:50.872Z,1019.45
2018-12-14T08:56:50.895Z,1019.42
2018-12-14T08:57:50.855Z,1019.48
2018-12-14T08:58:50.848Z,1019.42
2018-12-14T08:59:50.860Z,1019.44
2018-12-14T09:00:50.875Z,1019.50
2018-12-14T09:01:50.801Z,1019.55
2018-12-14T09:02:50.800Z,1019.53
2018-12-14T09:03:50.788Z,1019.58
2018-12-14T09:04:50.771Z,1019.58
2018-12-14T09:05:50.813Z,1019.53
2018-12-14T09:06:50.758Z,1019.57
2018-12-14T09:07:50.777Z,1019.60
2018-12-14T09:08:50.731Z,1019.57
2018-12-14T09:09:50.724Z,1019.58
2018-12-14T09:10:50.755Z,1019.62
2018-12-14T09:11:50.694Z,1019.62
2018-12-14T09:12:50.683Z,1019.64
2018-12-14T09:13:50.680Z,1019.73
2018-12-14T09:14:50.674Z,1019.66
2018-12-14T09:15:50.681Z,1019.73
2018-12-14T09:16:50.647Z,1019.77
2018-12-14T09:17:50.659Z,1019.68
2018-12-14T09:18:50.621Z,1019.69
2018-12-14T09:19:50.657Z,1019.72
2018-12-14T09:20:50.603Z,1019.69
2018-12-14T09:21:50.645Z,1019.72
2018-12-14T09:22:50.585Z,1019.74
2018-12-14T09:23:50.581Z,1019.74
2018-12-14T09:24:50.585Z,1019.70
2018-12-14T09:25:50.559Z,1019.71
2018-12-14T09:26:50.553Z,1019.74
2018-12-14T09:27:50.525Z,1019.75
2018-12-14T09:28:50.513Z,1019.74
2018-12-14T09:29:50.537Z,1019.70
2018-12-14T09:30:50.511Z,1019.69
2018-12-14T09:31:50.483Z,1019.74
2018-12-14T09:32:50.468Z,1019.72
2018-12-14T09:33:50.461Z,1019.68
2018-12-14T09:34:50.479Z,1019.70
2018-12-14T09:35:50.474Z,1019.73
2018-12-14T09:36:50.425Z,1019.68
2018-12-14T09:37:50.431Z,1019.71
2018-12-14T09:38:50.436Z,1019.67
2018-12-14T09:39:50.406Z,1019.70
2018-12-14T09:40:50.388Z,1019.70
2018-12-14T09:41:50.380Z,1019.76
2018-12-14T09:42:50.387Z,1019.71
2018-12-14T09:43:54.274Z,1019.77
2018-12-14T09:44:50.372Z,1019.71
2018-12-14T09:45:50.333Z,1019.75
2018-12-14T09:46:50.315Z,1019.73
2018-12-14T09:47:50.354Z,1019.74
2018-12-14T09:48:50.294Z,1019.76
2018-12-14T09:49:50.329Z,1019.78
2018-12-14T09:50:50.281Z,1019.82
2018-12-14T09:51:50.257Z,1019.77
2018-12-14T09:52:50.292Z,1019.83
2018-12-14T09:53:50.244Z,1019.82
2018-12-14T09:54:50.254Z,1019.79
2018-12-14T09:55:50.217Z,1019.72
2018-12-14T09:56:50.225Z,1019.78
2018-12-14T09:57:50.237Z,1019.81
2018-12-14T09:58:50.212Z,1019.69
2018-12-14T09:59:50.203Z,1019.76
2018-12-14T10:00:50.169Z,1019.75
2018-12-14T10:01:50.168Z,1019.77
2018-12-14T10:02:50.155Z,1019.76
2018-12-14T10:03:50.138Z,1019.78
2018-12-14T10:04:50.146Z,1019.75
2018-12-14T10:05:50.114Z,1019.78
2018-12-14T10:06:50.100Z,1019.81
2018-12-14T10:07:50.086Z,1019.71
2018-12-14T10:08:50.129Z,1019.78
2018-12-14T10:09:50.078Z,1019.74
2018-12-14T10:10:50.057Z,1019.71
2018-12-14T10:11:55.134Z,1019.73
2018-12-14T10:12:51.034Z,1019.80
2018-12-14T10:13:50.020Z,1019.79
2018-12-14T10:14:50.016Z,1019.74
2018-12-14T10:15:50.000Z,1019.74
2018-12-14T10:16:50.039Z,1019.74
2018-12-14T10:17:50.023Z,1019.73
2018-12-14T10:18:49.968Z,1019.66
2018-12-14T10:19:49.956Z,1019.72
2018-12-14T10:20:49.979Z,1019.71
2018-12-14T10:21:49.978Z,1019.68
2018-12-14T10:22:49.921Z,1019.63
2018-12-14T10:23:49.910Z,1019.71
2018-12-14T10:24:49.901Z,1019.63
2018-12-14T10:25:49.929Z,1019.61
2018-12-14T10:26:49.889Z,1019.64
2018-12-14T10:27:49.879Z,1019.65
2018-12-14T10:28:49.861Z,1019.62
2018-12-14T10:29:49.884Z,1019.59
2018-12-14T10:30:49.840Z,1019.57
2018-12-14T10:31:49.823Z,1019.57
2018-12-14T10:32:49.854Z,1019.58
2018-12-14T10:33:49.816Z,1019.59
2018-12-14T10:34:49.792Z,1019.55
2018-12-14T10:35:49.779Z,1019.53
2018-12-14T10:36:49.772Z,1019.53
2018-12-14T10:37:49.840Z,1019.51
2018-12-14T10:38:49.760Z,1019.49
2018-12-14T10:39:49.737Z,1019.52
2018-12-14T10:40:49.728Z,1019.46
2018-12-14T10:41:49.760Z,1019.49
2018-12-14T10:42:49.739Z,1019.42
2018-12-14T10:43:49.691Z,1019.44
2018-12-14T10:44:49.691Z,1019.42
2018-12-14T10:45:49.686Z,1019.38
2018-12-14T10:46:49.673Z,1019.43
2018-12-14T10:47:49.672Z,1019.40
2018-12-14T10:48:49.640Z,1019.40
2018-12-14T10:49:49.661Z,1019.40
2018-12-14T10:50:49.626Z,1019.36
2018-12-14T10:51:49.625Z,1019.46
2018-12-14T10:52:49.627Z,1019.39
2018-12-14T10:53:49.594Z,1019.37
2018-12-14T10:54:49.603Z,1019.40
2018-12-14T10:55:49.567Z,1019.43
2018-12-14T10:56:49.557Z,1019.36
2018-12-14T10:57:49.637Z,1019.44
2018-12-14T10:58:49.530Z,1019.38
2018-12-14T10:59:49.556Z,1019.35
2018-12-14T11:00:49.516Z,1019.40
2018-12-14T11:01:49.510Z,1019.34
2018-12-14T11:02:49.531Z,1019.34
2018-12-14T11:03:49.478Z,1019.30
2018-12-14T11:04:49.504Z,1019.28
2018-12-14T11:05:49.491Z,1019.32
2018-12-14T11:06:49.444Z,1019.29
2018-12-14T11:07:49.474Z,1019.30
2018-12-14T11:08:49.433Z,1019.29
2018-12-14T11:09:49.417Z,1019.37
2018-12-14T11:10:49.397Z,1019.25
2018-12-14T11:11:49.460Z,1019.20
2018-12-14T11:12:49.413Z,1019.25
2018-12-14T11:13:49.461Z,1019.24
2018-12-14T11:14:49.358Z,1019.29
2018-12-14T11:15:49.373Z,1019.29
2018-12-14T11:16:49.387Z,1019.24
2018-12-14T11:17:49.341Z,1019.22
2018-12-14T11:18:49.312Z,1019.19
2018-12-14T11:19:49.339Z,1019.20
2018-12-14T11:20:49.318Z,1019.26
2018-12-14T11:21:49.281Z,1019.24
2018-12-14T11:22:49.318Z,1019.27
2018-12-14T11:23:49.262Z,1019.33
2018-12-14T11:24:49.249Z,1019.33
2018-12-14T11:25:49.240Z,1019.32
2018-12-14T11:26:49.236Z,1019.27
2018-12-14T11:27:49.262Z,1019.27
2018-12-14T11:28:49.221Z,1019.33
2018-12-14T11:29:49.200Z,1019.23
2018-12-14T11:30:49.184Z,1019.22
2018-12-14T11:31:49.167Z,1019.28
2018-12-14T11:32:49.187Z,1019.32
2018-12-14T11:33:49.184Z,1019.36
2018-12-14T11:34:49.142Z,1019.28
2018-12-14T11:35:49.147Z,1019.28
2018-12-14T11:36:49.115Z,1019.29
2018-12-14T11:37:49.144Z,1019.29
2018-12-14T11:38:49.142Z,1019.26
2018-12-14T11:39:49.127Z,1019.26
2018-12-14T11:40:49.084Z,1019.26
2018-12-14T11:41:49.064Z,1019.35
2018-12-14T11:42:49.080Z,1019.33
2018-12-14T11:43:49.038Z,1019.27
2018-12-14T11:44:49.039Z,1019.32
2018-12-14T11:45:49.021Z,1019.32
2018-12-14T11:46:49.059Z,1019.33
2018-12-14T11:47:48.995Z,1019.26
2018-12-14T11:48:48.983Z,1019.33
2018-12-14T11:49:48.988Z,1019.27
2018-12-14T11:50:49.000Z,1019.29
2018-12-14T11:51:48.949Z,1019.28
2018-12-14T11:52:48.963Z,1019.27
2018-12-14T11:53:48.976Z,1019.24
2018-12-14T11:54:48.919Z,1019.33
2018-12-14T11:55:48.938Z,1019.30
2018-12-14T11:56:48.931Z,1019.31
2018-12-14T11:57:48.906Z,1019.31
2018-12-14T11:58:48.878Z,1019.29
2018-12-14T11:59:48.877Z,1019.31
2018-12-14T12:00:48.853Z,1019.32
2018-12-14T12:01:48.892Z,1019.24
2018-12-14T12:02:48.911Z,1019.23
2018-12-14T12:03:48.819Z,1019.23
2018-12-14T12:04:48.878Z,1019.23
2018-12-14T12:05:48.876Z,1019.19